The Hangar Logo

METARs in Plain English
Latest METAR information for EGVN - BRIZE NORTON

EGVN 221850Z 07009KT CAVOK 24/15 Q1022 BLU NOSIG

In plain english is....

This is a METAR report for EGVN - BRIZE NORTON .
The report was made 19 minutes ago, at 18:50 UTC.
The wind was blowing at a speed of 9 knots (10.4 miles per hour, 4.6 metres per second) from the East/Northeast (070°).
The visibility was greater than 6.2 miles (greater than 10 kilometres).
There were no clouds below 5,000 feet (1,524 metres).
The temperature was 24°C (75°F), a dew point of 15°C (59°F) and a relative humidity of 57.2%.
The altimeter setting (airfield QNH) was 1,022 hPa (30.18 inHg).
Other remarks BLU NOSIG.

UK Mainland

Ireland

Channel Islands

France

Other



Enter
Tel: 07092 887559 - Fax: 07092 183262

Terms of Use | Privacy Statement
Content copyright © 1999-2012 TheHangar.co.uk. All rights reserved.
Please send your questions, comments, or bug reports to the Webmaster.